createdAt,value
2019-04-05T00:02:12.757Z,8.70
2019-04-05T00:04:42.124Z,11.40
2019-04-05T00:07:11.555Z,11.03
2019-04-05T00:09:42.129Z,10.88
2019-04-05T00:12:11.629Z,10.38
2019-04-05T00:14:40.970Z,9.23
2019-04-05T00:17:10.415Z,9.35
2019-04-05T00:19:39.828Z,10.80
2019-04-05T00:22:09.260Z,13.30
2019-04-05T00:24:38.648Z,9.13
2019-04-05T00:27:08.113Z,9.28
2019-04-05T00:29:37.563Z,9.93
2019-04-05T00:32:06.988Z,9.88
2019-04-05T00:34:38.720Z,9.18
2019-04-05T00:37:08.137Z,8.88
2019-04-05T00:39:37.494Z,10.10
2019-04-05T00:42:07.857Z,9.58
2019-04-05T00:44:37.298Z,8.95
2019-04-05T00:47:07.928Z,8.90
2019-04-05T00:49:37.432Z,12.18
2019-04-05T00:52:07.837Z,9.58
2019-04-05T00:54:37.290Z,9.30
2019-04-05T00:57:06.761Z,9.68
2019-04-05T00:59:36.224Z,9.45
2019-04-05T01:02:07.576Z,8.18
2019-04-05T01:04:39.590Z,7.87
2019-04-05T01:07:09.143Z,7.87
2019-04-05T01:09:38.717Z,10.25
2019-04-05T01:12:08.128Z,9.45
2019-04-05T01:14:37.733Z,10.68
2019-04-05T01:17:07.165Z,8.48
2019-04-05T01:19:40.013Z,9.70
2019-04-05T01:22:12.498Z,7.70
2019-04-05T01:24:41.957Z,10.72
2019-04-05T01:27:12.021Z,11.33
2019-04-05T01:29:42.269Z,11.48
2019-04-05T01:32:11.729Z,10.00
2019-04-05T01:34:43.202Z,8.50
2019-04-05T01:37:13.668Z,10.70
2019-04-05T01:39:43.020Z,11.25
2019-04-05T01:42:12.523Z,9.85
2019-04-05T01:44:41.957Z,13.62
2019-04-05T01:47:11.442Z,10.32
2019-04-05T01:49:42.469Z,10.05
2019-04-05T01:52:12.060Z,9.20
2019-04-05T01:54:41.480Z,13.88
2019-04-05T01:57:10.992Z,11.40
2019-04-05T01:59:40.356Z,9.30
2019-04-05T02:02:09.752Z,11.55
2019-04-05T02:04:39.104Z,10.00
2019-04-05T02:07:09.100Z,10.82
2019-04-05T02:09:39.024Z,11.40
2019-04-05T02:12:08.654Z,10.13
2019-04-05T02:14:39.543Z,9.68
2019-04-05T02:17:09.121Z,10.82
2019-04-05T02:19:39.795Z,9.83
2019-04-05T02:22:09.208Z,10.68
2019-04-05T02:24:38.706Z,12.37
2019-04-05T02:27:08.246Z,10.55
2019-04-05T02:29:37.742Z,10.88
2019-04-05T02:32:07.233Z,11.12
2019-04-05T02:34:36.633Z,10.65
2019-04-05T02:37:07.284Z,12.70
2019-04-05T02:39:38.730Z,12.82
2019-04-05T02:42:10.186Z,12.23
2019-04-05T02:44:40.869Z,11.78
2019-04-05T02:47:10.646Z,11.85
2019-04-05T02:49:41.741Z,13.20
2019-04-05T02:52:12.219Z,12.13
2019-04-05T02:54:44.593Z,10.35
2019-04-05T02:57:14.618Z,14.68
2019-04-05T02:59:45.287Z,13.58
2019-04-05T03:02:16.441Z,13.35
2019-04-05T03:04:46.803Z,12.05
2019-04-05T03:07:22.485Z,12.20
2019-04-05T03:09:51.991Z,12.93
2019-04-05T03:12:22.277Z,13.25
2019-04-05T03:14:52.790Z,14.15
2019-04-05T03:17:23.753Z,13.25
2019-04-05T03:19:59.951Z,16.25
2019-04-05T03:22:30.531Z,15.65
2019-04-05T03:25:01.407Z,14.28
2019-04-05T03:27:34.174Z,11.97
2019-04-05T03:30:06.418Z,14.00
2019-04-05T03:32:35.929Z,12.60
2019-04-05T03:35:06.872Z,13.58
2019-04-05T03:37:36.273Z,13.53
2019-04-05T03:40:07.855Z,15.32
2019-04-05T03:42:42.326Z,14.83
2019-04-05T03:45:14.430Z,13.25
2019-04-05T03:47:43.932Z,14.40
2019-04-05T03:50:13.447Z,15.80
2019-04-05T03:52:42.949Z,13.05
2019-04-05T03:55:12.550Z,13.28
2019-04-05T03:57:43.520Z,16.23
2019-04-05T04:00:13.110Z,13.83
2019-04-05T04:02:42.636Z,12.47
2019-04-05T04:05:15.573Z,14.25
2019-04-05T04:07:45.050Z,15.25
2019-04-05T04:10:17.580Z,14.13
2019-04-05T04:12:47.006Z,14.28
2019-04-05T04:15:16.697Z,14.63
2019-04-05T04:17:46.676Z,14.68
2019-04-05T04:20:35.906Z,18.32
2019-04-05T04:23:07.780Z,13.65
2019-04-05T04:25:38.997Z,14.85
2019-04-05T04:28:08.577Z,14.53
2019-04-05T04:30:38.154Z,17.02
2019-04-05T04:33:07.664Z,13.65
2019-04-05T04:35:37.364Z,17.05
2019-04-05T04:38:07.379Z,13.62
2019-04-05T04:40:37.573Z,13.85
2019-04-05T04:43:09.768Z,14.05
2019-04-05T04:45:39.377Z,15.50
2019-04-05T04:48:09.184Z,16.95
2019-04-05T04:50:39.378Z,16.62
2019-04-05T04:53:09.504Z,17.37
2019-04-05T04:55:40.193Z,17.15
2019-04-05T04:58:09.948Z,16.32
2019-04-05T05:00:39.313Z,15.25
2019-04-05T05:03:08.820Z,16.32
2019-04-05T05:05:39.851Z,14.80
2019-04-05T05:08:09.656Z,14.85
2019-04-05T05:10:42.480Z,15.83
2019-04-05T05:13:11.988Z,13.10
2019-04-05T05:15:42.488Z,15.35
2019-04-05T05:18:17.315Z,14.53
2019-04-05T05:20:50.110Z,13.70
2019-04-05T05:23:20.783Z,14.50
2019-04-05T05:25:55.676Z,15.32
2019-04-05T05:28:29.457Z,14.10
2019-04-05T05:30:59.445Z,18.98
2019-04-05T05:33:30.121Z,17.87
2019-04-05T05:36:05.470Z,16.93
2019-04-05T05:38:39.213Z,18.55
2019-04-05T05:41:10.879Z,19.00
2019-04-05T05:43:40.615Z,23.35
2019-04-05T05:46:10.194Z,18.48
2019-04-05T05:48:39.893Z,18.92
2019-04-05T05:51:09.797Z,13.53
2019-04-05T05:53:39.416Z,15.13
2019-04-05T05:56:10.773Z,17.37
2019-04-05T05:58:42.221Z,13.78
2019-04-05T06:01:15.302Z,15.05
2019-04-05T06:06:14.207Z,14.15
2019-04-05T06:08:46.780Z,16.77
2019-04-05T06:11:16.201Z,14.35
2019-04-05T06:13:46.261Z,14.63
2019-04-05T06:16:15.722Z,15.13
2019-04-05T06:18:45.166Z,14.78
2019-04-05T06:21:16.243Z,14.85
2019-04-05T06:23:45.869Z,11.88
2019-04-05T06:26:15.334Z,17.45
2019-04-05T06:28:44.861Z,17.05
2019-04-05T06:31:16.289Z,12.78
2019-04-05T06:33:45.856Z,11.93
2019-04-05T06:36:16.246Z,14.40
2019-04-05T06:38:49.238Z,17.02
2019-04-05T06:43:51.184Z,13.95
2019-04-05T06:46:20.535Z,20.25
2019-04-05T06:48:50.144Z,18.50
2019-04-05T06:51:19.576Z,13.53
2019-04-05T06:53:49.052Z,13.20
2019-04-05T06:56:24.778Z,13.32
2019-04-05T06:58:54.786Z,15.43
2019-04-05T07:01:26.988Z,14.70
2019-04-05T07:03:59.556Z,13.65
2019-04-05T07:06:31.400Z,16.57
2019-04-05T07:09:05.434Z,14.85
2019-04-05T07:11:39.308Z,19.92
2019-04-05T07:14:09.691Z,15.15
2019-04-05T07:16:50.151Z,15.08
2019-04-05T07:19:20.883Z,12.45
2019-04-05T07:21:50.313Z,14.23
2019-04-05T07:24:19.766Z,14.00
2019-04-05T07:26:49.229Z,14.98
2019-04-05T07:29:20.716Z,11.33
2019-04-05T07:31:51.141Z,13.08
2019-04-05T07:34:20.577Z,11.15
2019-04-05T07:36:49.992Z,11.60
2019-04-05T07:39:22.347Z,9.45
2019-04-05T07:41:51.778Z,11.85
2019-04-05T07:44:21.301Z,10.13
2019-04-05T07:46:50.789Z,8.63
2019-04-05T07:49:20.308Z,8.73
2019-04-05T07:51:52.899Z,9.28
2019-04-05T07:54:24.257Z,9.70
2019-04-05T07:56:53.691Z,9.25
2019-04-05T07:59:23.150Z,9.50
2019-04-05T08:01:52.598Z,14.58
2019-04-05T08:04:22.111Z,9.45
2019-04-05T08:06:51.693Z,7.42
2019-04-05T08:09:24.754Z,9.53
2019-04-05T08:11:54.853Z,12.50
2019-04-05T08:14:25.061Z,10.30
2019-04-05T08:17:00.244Z,10.00
2019-04-05T08:19:29.678Z,13.93
2019-04-05T08:22:00.130Z,10.72
2019-04-05T08:24:30.472Z,10.75
2019-04-05T08:26:59.914Z,13.95
2019-04-05T08:29:29.527Z,11.28
2019-04-05T08:31:58.976Z,10.58
2019-04-05T08:34:28.486Z,9.28
2019-04-05T08:36:57.920Z,8.90
2019-04-05T08:39:32.614Z,7.17
2019-04-05T08:42:02.094Z,7.25
2019-04-05T08:44:31.554Z,7.85
2019-04-05T08:47:01.020Z,7.40
2019-04-05T08:49:30.479Z,8.43
2019-04-05T08:52:00.183Z,9.15
2019-04-05T08:54:33.113Z,7.62
2019-04-05T08:57:03.271Z,7.65
2019-04-05T08:59:34.616Z,7.97
2019-04-05T09:02:04.253Z,8.13
2019-04-05T09:04:33.683Z,7.90
2019-04-05T09:07:03.130Z,7.65
2019-04-05T09:09:32.581Z,8.38
2019-04-05T09:12:02.984Z,6.17
2019-04-05T09:14:32.375Z,8.03
2019-04-05T09:17:01.834Z,6.70
2019-04-05T09:19:34.624Z,15.83
2019-04-05T09:22:04.128Z,7.40
2019-04-05T09:24:34.565Z,5.10
2019-04-05T09:27:05.974Z,6.70
2019-04-05T09:29:39.473Z,5.87
2019-04-05T09:32:08.933Z,5.72
2019-04-05T09:34:44.188Z,5.60
2019-04-05T09:37:13.685Z,5.40
2019-04-05T09:39:43.126Z,6.70
2019-04-05T09:42:12.574Z,9.70
2019-04-05T09:44:43.005Z,7.83
2019-04-05T09:47:13.550Z,11.30
2019-04-05T09:49:43.050Z,5.75
2019-04-05T09:52:12.485Z,8.28
2019-04-05T09:54:41.913Z,7.62
2019-04-05T09:57:11.356Z,6.85
2019-04-05T09:59:40.985Z,6.30
2019-04-05T10:02:10.590Z,5.72
2019-04-05T10:04:42.633Z,15.10
2019-04-05T10:07:13.643Z,7.12
2019-04-05T10:09:43.188Z,6.95
2019-04-05T10:12:13.562Z,7.15
2019-04-05T10:14:43.078Z,6.83
2019-04-05T10:17:12.541Z,10.43
2019-04-05T10:19:49.677Z,9.30
2019-04-05T10:22:15.880Z,7.42
2019-04-05T10:24:45.331Z,8.13
2019-04-05T10:27:14.777Z,7.42
2019-04-05T10:29:44.216Z,8.20
2019-04-05T10:32:13.666Z,9.00
2019-04-05T10:34:43.169Z,7.58
2019-04-05T10:37:12.739Z,7.72
2019-04-05T10:39:42.335Z,6.25
2019-04-05T10:42:32.849Z,10.10
2019-04-05T10:45:02.522Z,7.83
2019-04-05T10:47:32.170Z,9.30
2019-04-05T10:50:03.493Z,8.13
2019-04-05T10:52:32.659Z,8.88
2019-04-05T10:55:02.196Z,7.50
2019-04-05T10:57:32.082Z,8.35
2019-04-05T11:00:01.514Z,7.78
2019-04-05T11:02:33.613Z,7.35
2019-04-05T11:05:03.327Z,6.40
2019-04-05T11:07:34.909Z,5.60
2019-04-05T11:10:07.026Z,5.80
2019-04-05T11:12:39.869Z,6.47
2019-04-05T11:17:42.573Z,4.78
2019-04-05T11:20:21.386Z,6.85
2019-04-05T11:22:46.375Z,6.83
2019-04-05T11:25:15.079Z,7.62
2019-04-05T11:27:44.510Z,5.25
2019-04-05T11:30:18.991Z,7.65
2019-04-05T11:32:48.527Z,7.97
2019-04-05T11:35:18.047Z,6.45
2019-04-05T11:37:49.911Z,7.28
2019-04-05T11:40:18.813Z,6.83
2019-04-05T11:42:49.121Z,6.17
2019-04-05T11:45:18.869Z,9.60
2019-04-05T11:47:48.831Z,6.62
2019-04-05T11:50:19.563Z,5.95
2019-04-05T11:52:48.916Z,5.30
2019-04-05T11:55:18.891Z,5.95
2019-04-05T11:57:48.460Z,5.62
2019-04-05T12:00:31.397Z,4.80
2019-04-05T12:05:38.723Z,7.03
2019-04-05T12:08:09.056Z,6.25
2019-04-05T12:10:38.595Z,6.10
2019-04-05T12:13:08.033Z,5.87
2019-04-05T12:15:37.409Z,6.90
2019-04-05T12:18:06.784Z,6.62
2019-04-05T12:20:47.863Z,8.40
2019-04-05T12:23:09.181Z,8.25
2019-04-05T12:25:38.744Z,9.03
2019-04-05T12:28:10.594Z,9.78
2019-04-05T12:30:40.792Z,10.08
2019-04-05T12:33:14.152Z,11.75
2019-04-05T12:35:41.352Z,16.02
2019-04-05T12:38:10.808Z,14.55
2019-04-05T12:40:42.225Z,9.80
2019-04-05T12:43:13.601Z,9.05
2019-04-05T12:45:44.656Z,11.60
2019-04-05T12:48:16.089Z,11.85
2019-04-05T12:53:35.768Z,11.00
2019-04-05T12:56:05.808Z,12.95
2019-04-05T12:58:35.173Z,11.15
2019-04-05T13:01:04.763Z,12.20
2019-04-05T13:03:34.195Z,12.40
2019-04-05T13:08:56.801Z,14.87
2019-04-05T13:11:27.148Z,19.12
2019-04-05T13:13:58.143Z,14.98
2019-04-05T13:16:28.525Z,15.65
2019-04-05T13:19:00.426Z,13.48
2019-04-05T13:21:33.021Z,17.75
2019-04-05T13:24:04.037Z,18.80
2019-04-05T13:26:32.527Z,17.92
2019-04-05T13:29:07.844Z,24.00
2019-04-05T13:31:37.346Z,21.00
2019-04-05T13:34:06.769Z,22.17
2019-04-05T13:36:39.750Z,20.17
2019-04-05T13:39:09.561Z,21.10
2019-04-05T13:41:39.024Z,23.20
2019-04-05T13:44:08.493Z,19.05
2019-04-05T13:46:42.592Z,24.40
2019-04-05T13:49:11.015Z,20.12
2019-04-05T13:51:42.128Z,22.75
2019-04-05T13:54:11.707Z,20.23
2019-04-05T13:56:47.048Z,23.87
2019-04-05T13:59:19.565Z,21.07
2019-04-05T14:02:05.523Z,25.35
2019-04-05T14:04:25.985Z,24.18
2019-04-05T14:06:55.386Z,24.87
2019-04-05T14:09:24.845Z,29.80
2019-04-05T14:11:54.302Z,27.37
2019-04-05T14:14:23.773Z,26.95
2019-04-05T14:16:54.089Z,29.27
2019-04-05T14:19:23.831Z,25.95
2019-04-05T14:22:07.907Z,25.50
2019-04-05T14:24:28.449Z,27.45
2019-04-05T14:26:57.988Z,24.90
2019-04-05T14:29:27.640Z,28.12
2019-04-05T14:31:57.096Z,22.02
2019-04-05T14:34:26.528Z,24.63
2019-04-05T14:36:56.957Z,23.52
2019-04-05T14:39:26.378Z,23.02
2019-04-05T14:42:08.772Z,21.12
2019-04-05T14:44:26.978Z,22.98
2019-04-05T14:46:58.102Z,20.45
2019-04-05T14:49:30.405Z,19.70
2019-04-05T14:52:01.102Z,22.50
2019-04-05T14:54:32.449Z,22.55
2019-04-05T14:57:05.421Z,21.87
2019-04-05T14:59:34.233Z,18.30
2019-04-05T15:02:03.915Z,19.92
2019-04-05T15:04:33.454Z,20.02
2019-04-05T15:07:02.950Z,20.30
2019-04-05T15:09:32.311Z,17.05
2019-04-05T15:12:01.954Z,19.50
2019-04-05T15:14:31.466Z,18.92
2019-04-05T15:17:01.045Z,21.20
2019-04-05T15:19:31.539Z,19.32
2019-04-05T15:22:05.977Z,22.45
2019-04-05T15:24:34.019Z,21.75
2019-04-05T15:27:04.524Z,20.60
2019-04-05T15:29:37.453Z,18.23
2019-04-05T15:32:10.553Z,20.80
2019-04-05T15:34:41.640Z,17.62
2019-04-05T15:37:11.143Z,19.80
2019-04-05T15:39:44.264Z,16.93
2019-04-05T15:42:13.017Z,18.12
2019-04-05T15:44:48.394Z,22.02
2019-04-05T15:47:17.839Z,19.40
2019-04-05T15:49:47.257Z,17.62
2019-04-05T15:52:18.863Z,16.75
2019-04-05T15:54:48.670Z,19.73
2019-04-05T15:57:19.080Z,18.67
2019-04-05T15:59:53.578Z,18.48
2019-04-05T16:02:26.148Z,16.55
2019-04-05T16:04:55.590Z,16.37
2019-04-05T16:07:25.043Z,16.60
2019-04-05T16:09:54.567Z,15.90
2019-04-05T16:12:24.023Z,17.37
2019-04-05T16:14:54.428Z,18.50
2019-04-05T16:17:23.869Z,15.55
2019-04-05T16:19:53.352Z,15.72
2019-04-05T16:22:31.188Z,20.77
2019-04-05T16:24:53.841Z,14.80
2019-04-05T16:27:23.439Z,16.23
2019-04-05T16:29:53.970Z,15.55
2019-04-05T16:32:24.356Z,13.85
2019-04-05T16:34:57.843Z,15.40
2019-04-05T16:37:30.162Z,17.92
2019-04-05T16:39:59.596Z,16.73
2019-04-05T16:42:31.025Z,14.68
2019-04-05T16:45:01.702Z,15.28
2019-04-05T16:47:34.984Z,18.05
2019-04-05T16:50:09.506Z,14.87
2019-04-05T16:52:45.110Z,13.80
2019-04-05T16:55:12.502Z,16.07
2019-04-05T16:57:41.996Z,14.65
2019-04-05T17:00:14.219Z,17.17
2019-04-05T17:02:43.925Z,17.65
2019-04-05T17:05:14.128Z,21.00
2019-04-05T17:07:44.815Z,23.30
2019-04-05T17:10:14.621Z,22.13
2019-04-05T17:12:44.193Z,22.50
2019-04-05T17:15:14.090Z,23.65
2019-04-05T17:17:44.656Z,23.15
2019-04-05T17:20:14.310Z,23.85
2019-04-05T17:22:57.146Z,24.77
2019-04-05T17:25:16.242Z,24.60
2019-04-05T17:27:47.795Z,26.52
2019-04-05T17:30:18.544Z,28.20
2019-04-05T17:32:49.104Z,26.95
2019-04-05T17:35:19.517Z,28.60
2019-04-05T17:37:48.964Z,31.57
2019-04-05T17:40:18.412Z,29.12
2019-04-05T17:42:49.914Z,33.05
2019-04-05T17:45:19.490Z,32.73
2019-04-05T17:47:48.922Z,31.00
2019-04-05T17:50:30.771Z,31.62
2019-04-05T17:53:11.337Z,30.85
2019-04-05T17:55:32.619Z,30.08
2019-04-05T17:58:05.505Z,31.70
2019-04-05T18:00:37.443Z,32.17
2019-04-05T18:03:06.870Z,34.30
2019-04-05T18:05:36.329Z,34.15
2019-04-05T18:08:05.726Z,29.00
2019-04-05T18:10:35.213Z,28.75
2019-04-05T18:13:04.862Z,27.58
2019-04-05T18:15:35.310Z,31.70
2019-04-05T18:18:04.956Z,29.90
2019-04-05T18:20:35.277Z,31.55
2019-04-05T18:23:04.798Z,32.45
2019-04-05T18:25:35.330Z,32.20
2019-04-05T18:28:05.760Z,36.50
2019-04-05T18:30:37.173Z,34.23
2019-04-05T18:33:09.695Z,37.42
2019-04-05T18:35:39.220Z,36.63
2019-04-05T18:38:08.628Z,40.85
2019-04-05T18:40:40.623Z,39.13
2019-04-05T18:43:10.089Z,48.10
2019-04-05T18:45:39.610Z,41.15
2019-04-05T18:48:10.624Z,39.63
2019-04-05T18:50:41.073Z,44.50
2019-04-05T18:53:10.601Z,41.83
2019-04-05T18:55:40.073Z,40.73
2019-04-05T18:58:10.552Z,42.65
2019-04-05T19:00:40.010Z,40.92
2019-04-05T19:03:09.490Z,41.02
2019-04-05T19:05:38.977Z,39.25
2019-04-05T19:08:08.653Z,38.80
2019-04-05T19:10:39.949Z,36.38
2019-04-05T19:13:15.149Z,38.02
2019-04-05T19:15:44.635Z,38.88
2019-04-05T19:18:19.967Z,39.20
2019-04-05T19:20:50.324Z,38.05
2019-04-05T19:23:19.804Z,36.75
2019-04-05T19:25:53.924Z,37.23
2019-04-05T19:48:34.899Z,43.02
2019-04-05T19:51:03.935Z,58.20
2019-04-05T19:53:33.406Z,45.03
2019-04-05T19:56:04.306Z,49.30
2019-04-05T19:58:33.813Z,47.73
2019-04-05T20:01:03.286Z,44.93
2019-04-05T20:03:32.879Z,47.10
2019-04-05T20:06:03.854Z,50.28
2019-04-05T20:08:33.268Z,48.50
2019-04-05T20:11:06.023Z,50.65
2019-04-05T20:16:10.940Z,50.88
2019-04-05T20:18:40.411Z,52.62
2019-04-05T20:21:10.126Z,51.58
2019-04-05T20:23:47.416Z,54.48
2019-04-05T20:26:16.614Z,55.12
2019-04-05T20:28:46.104Z,55.83
2019-04-05T20:31:15.619Z,52.83
2019-04-05T20:33:45.056Z,55.70
2019-04-05T20:36:14.525Z,57.75
2019-04-05T20:38:43.975Z,58.63
2019-04-05T20:41:13.492Z,57.93
2019-04-05T20:43:42.880Z,60.23
2019-04-05T20:46:13.507Z,59.55
2019-04-05T20:48:43.861Z,60.05
2019-04-05T20:51:13.337Z,59.38
2019-04-05T20:53:42.807Z,60.35
2019-04-05T20:56:12.274Z,63.78
2019-04-05T20:58:41.705Z,60.52
2019-04-05T21:01:13.022Z,64.05
2019-04-05T21:03:42.444Z,62.23
2019-04-05T21:06:12.941Z,61.20
2019-04-05T21:08:42.476Z,61.98
2019-04-05T21:11:11.927Z,64.07
2019-04-05T21:13:42.357Z,62.38
2019-04-05T21:16:11.792Z,62.85
2019-04-05T21:18:41.235Z,69.35
2019-04-05T21:21:11.653Z,64.37
2019-04-05T21:23:41.099Z,64.00
2019-04-05T21:26:10.541Z,67.03
2019-04-05T21:28:39.928Z,65.20
2019-04-05T21:31:12.313Z,65.97
2019-04-05T21:33:41.783Z,68.45
2019-04-05T21:36:11.220Z,68.12
2019-04-05T21:38:40.589Z,67.53
2019-04-05T21:41:10.048Z,62.13
2019-04-05T21:43:39.626Z,63.28
2019-04-05T21:46:09.145Z,62.55
2019-04-05T21:48:41.097Z,59.48
2019-04-05T21:51:13.138Z,60.03
2019-04-05T21:53:42.585Z,62.73
2019-04-05T21:56:12.034Z,66.60
2019-04-05T21:58:41.464Z,62.10
2019-04-05T22:01:12.248Z,64.12
2019-04-05T22:03:41.836Z,62.40
2019-04-05T22:06:11.748Z,65.57
2019-04-05T22:08:41.271Z,62.65
2019-04-05T22:11:10.696Z,66.17
2019-04-05T22:13:43.425Z,62.25
2019-04-05T22:16:13.833Z,62.50
2019-04-05T22:18:43.322Z,65.57
2019-04-05T22:21:13.324Z,61.02
2019-04-05T22:23:42.690Z,66.05
2019-04-05T22:26:12.699Z,65.92
2019-04-05T22:28:42.606Z,64.17
2019-04-05T22:31:14.452Z,65.42
2019-04-05T22:33:43.913Z,66.95
2019-04-05T22:36:13.656Z,64.32
2019-04-05T22:38:43.079Z,63.52
2019-04-05T22:41:12.558Z,60.90
2019-04-05T22:43:42.026Z,66.00
2019-04-05T22:46:12.423Z,65.32
2019-04-05T22:48:43.065Z,71.82
2019-04-05T22:51:13.439Z,69.17
2019-04-05T22:53:42.889Z,72.03
2019-04-05T22:56:12.434Z,66.30
2019-04-05T22:58:41.927Z,67.40
2019-04-05T23:01:11.385Z,68.42
2019-04-05T23:03:45.880Z,68.05
2019-04-05T23:06:15.457Z,68.62
2019-04-05T23:08:45.865Z,68.67
2019-04-05T23:11:18.809Z,68.22
2019-04-05T23:16:20.172Z,70.85
2019-04-05T23:18:49.740Z,64.92
2019-04-05T23:21:19.219Z,67.22
2019-04-05T23:23:49.143Z,68.85
2019-04-05T23:26:18.773Z,72.62
2019-04-05T23:28:49.763Z,68.47
2019-04-05T23:31:20.961Z,69.42
2019-04-05T23:33:53.405Z,67.25
2019-04-05T23:36:25.070Z,68.55
2019-04-05T23:38:56.442Z,70.97
2019-04-05T23:41:27.866Z,73.28
2019-04-05T23:43:57.343Z,71.82
2019-04-05T23:46:27.730Z,68.35
2019-04-05T23:48:59.323Z,74.10
2019-04-05T23:51:28.807Z,76.07
2019-04-05T23:53:58.288Z,75.65
2019-04-05T23:56:28.826Z,75.28
2019-04-05T23:59:01.009Z,78.85
